Charm It Solutions Web Development Company Yellow Grapes

Himachal Pradesh Power Corporation Ltd, Integrated Kashang HEP Stage - I
HOME | WATER DISCHARGE DATA   |   CONTACT US   |   LOGOUT

Water Discharge Data


Lean Period Discharge Set Value (Cumecs):
0.3000
Date from: to:
Download this data
Online Water Discharge Live Data (Cumecs):

 
Date & Time FlowReleased(Cumecs) Actual Required Flow 15% Of Average Lean Period Discharge (in Cumecs) as per H.P.Govt. Notification
MinFlow(Cumecs)
Excess Released Remarks
2020-04-05 00:00:00 0.3000 0.3000 0.0000
2020-04-05 00:15:00 0.3080 0.3000 0.0080
2020-04-05 00:30:00 0.3050 0.3000 0.0050
2020-04-05 00:45:00 0.3020 0.3000 0.0020
2020-04-05 01:00:00 0.3320 0.3000 0.0320
2020-04-05 01:15:00 0.3040 0.3000 0.0040
2020-04-05 01:30:00 0.3250 0.3000 0.0250
2020-04-05 01:45:00 0.3180 0.3000 0.0180
2020-04-05 02:00:00 0.3040 0.3000 0.0040
2020-04-05 02:15:00 0.3120 0.3000 0.0120
2020-04-05 02:30:00 0.3310 0.3000 0.0310
2020-04-05 02:45:00 0.3210 0.3000 0.0210
2020-04-05 03:00:00 0.3380 0.3000 0.0380
2020-04-05 03:15:00 0.3040 0.3000 0.0040
2020-04-05 03:30:00 0.3300 0.3000 0.0300
2020-04-05 03:45:00 0.3020 0.3000 0.0020
2020-04-05 04:00:00 0.3170 0.3000 0.0170
2020-04-05 04:15:00 0.3070 0.3000 0.0070
2020-04-05 04:30:00 0.3300 0.3000 0.0300
2020-04-05 04:45:00 0.3360 0.3000 0.0360
2020-04-05 05:00:00 0.3150 0.3000 0.0150
2020-04-05 05:15:00 0.3270 0.3000 0.0270
2020-04-05 05:30:00 0.3120 0.3000 0.0120
2020-04-05 05:45:00 0.3150 0.3000 0.0150
2020-04-05 06:00:00 0.3250 0.3000 0.0250
2020-04-05 06:15:00 0.3050 0.3000 0.0050
2020-04-05 06:30:00 0.3230 0.3000 0.0230
2020-04-05 06:45:00 0.3300 0.3000 0.0300
2020-04-05 07:00:00 0.3120 0.3000 0.0120
2020-04-05 07:15:00 0.3230 0.3000 0.0230
2020-04-05 07:30:00 0.3020 0.3000 0.0020
2020-04-05 07:45:00 0.3190 0.3000 0.0190
2020-04-05 08:00:00 0.3010 0.3000 0.0010
2020-04-05 08:15:00 0.3130 0.3000 0.0130
2020-04-05 08:30:00 0.3100 0.3000 0.0100
2020-04-05 08:45:00 0.3190 0.3000 0.0190
2020-04-05 09:00:00 0.3280 0.3000 0.0280
2020-04-05 09:15:00 0.3020 0.3000 0.0020
2020-04-05 09:30:00 0.3070 0.3000 0.0070
2020-04-05 09:45:00 0.3270 0.3000 0.0270
2020-04-05 10:00:00 0.3320 0.3000 0.0320
2020-04-05 10:15:00 0.3190 0.3000 0.0190
2020-04-05 10:30:00 0.3090 0.3000 0.0090
2020-04-05 10:45:00 0.3360 0.3000 0.0360
2020-04-05 11:00:00 0.3300 0.3000 0.0300
2020-04-05 11:15:00 0.3280 0.3000 0.0280
2020-04-05 11:30:00 0.3340 0.3000 0.0340
2020-04-05 11:45:00 0.3290 0.3000 0.0290
2020-04-05 12:00:00 0.3340 0.3000 0.0340
2020-04-05 12:15:00 0.3050 0.3000 0.0050
2020-04-05 12:30:00 0.3290 0.3000 0.0290
2020-04-05 12:45:00 0.3300 0.3000 0.0300
2020-04-05 13:00:00 0.3280 0.3000 0.0280
2020-04-05 13:15:00 0.3080 0.3000 0.0080
2020-04-05 13:30:00 0.3190 0.3000 0.0190
2020-04-05 13:45:00 0.3240 0.3000 0.0240
2020-04-05 14:00:00 0.3100 0.3000 0.0100
2020-04-05 14:15:00 0.3180 0.3000 0.0180
2020-04-05 14:30:00 0.3160 0.3000 0.0160
2020-04-05 14:45:00 0.3120 0.3000 0.0120
2020-04-05 15:00:00 0.3060 0.3000 0.0060
2020-04-05 15:15:00 0.3020 0.3000 0.0020
2020-04-05 15:30:00 0.3300 0.3000 0.0300
2020-04-05 15:45:00 0.3040 0.3000 0.0040
2020-04-05 16:00:00 0.3060 0.3000 0.0060
2020-04-05 16:15:00 0.3340 0.3000 0.0340
2020-04-05 16:30:00 0.3020 0.3000 0.0020
2020-04-05 16:45:00 0.3150 0.3000 0.0150
2020-04-05 17:00:00 0.3330 0.3000 0.0330
2020-04-05 17:15:00 0.3020 0.3000 0.0020
2020-04-05 17:30:00 0.3260 0.3000 0.0260
2020-04-05 17:45:00 0.3070 0.3000 0.0070
2020-04-05 18:00:00 0.3000 0.3000 0.0000
2020-04-05 18:15:00 0.3040 0.3000 0.0040
2020-04-05 18:30:00 0.3040 0.3000 0.0040
2020-04-05 18:45:00 0.3080 0.3000 0.0080
2020-04-05 19:00:00 0.3160 0.3000 0.0160
2020-04-05 19:15:00 0.3090 0.3000 0.0090
2020-04-05 19:30:00 0.3000 0.3000 0.0000
2020-04-05 19:45:00 0.3250 0.3000 0.0250
2020-04-05 20:00:00 0.3050 0.3000 0.0050
2020-04-05 20:15:00 0.3210 0.3000 0.0210
2020-04-05 20:30:00 0.3150 0.3000 0.0150
2020-04-05 20:45:00 0.3150 0.3000 0.0150
2020-04-05 21:00:00 0.3330 0.3000 0.0330
2020-04-05 21:15:00 0.3120 0.3000 0.0120
2020-04-05 21:30:00 0.3230 0.3000 0.0230
2020-04-05 21:45:00 0.3300 0.3000 0.0300
2020-04-05 22:00:00 0.3160 0.3000 0.0160
Home | Water Discharge Data | Contact Us
©CopyRights 2020. Himachal Pradesh Power Corporation Ltd, Integrated Kashang HEP Stage - I